Glen Avon, Illinois
Current Conditions -  °F | °C
As of 5:30 PM on Saturday 22 Nov 2014 (Local Time) from KTIP Reporting Station
Overcast Overcast  
Wind Chill: 55°   Ceiling: 2600
Heat Index: 55°   Visibility: 10mi
Dew Point: 47°   Wind: 13mph
Humidity: 74%   Direction: 210°SSW
Pressure: 29.95"   Gusts: NA
Location:  40.3398°N, 88.5173°W
Report Text: KTIP 222330Z AUTO 21011KT 10SM OVC026 13/08 A2995 RMK AO2 T01280082
Loading
Personal Weather Stations






























Interactive Weather Map New forecast layout! Learn more

10-Day Weather Forecast

Advertisements
Track Severe Weather on mobile